Time;durP1;ratioP1;P1;durP2;ratioP2;P2;SDS_P1;SDS_P2;PMS_P1;PMS_P2;Temp;Humidity;BMP_temperature;BMP_pressure;BME280_temperature;BME280_humidity;BME280_pressure;Samples;Min_cycle;Max_cycle;Signal;HPM_P1;HPM_P2
2022/05/28 00:01:11;;;;;;;;;;;;;;;-145.66;100.00;59599.19;10374669;28;19922;-59
2022/05/28 00:06:15;;;;;;;;;;;;;;;-145.66;100.00;59599.19;10373527;28;19921;-59
2022/05/28 00:11:21;;;;;;;;;;;;;;;-145.66;100.00;59599.19;10372697;28;20284;-59
2022/05/28 00:16:23;;;;;;;;;;;;;;;-145.66;100.00;59599.19;10372486;28;19921;-59
2022/05/28 00:21:27;;;;;;;;;;;;;;;-145.66;100.00;59599.19;10373830;28;19928;-59
2022/05/28 00:26:29;;;;;;;;;;;;;;;-145.66;100.00;59599.19;10377848;28;20291;-59
2022/05/28 00:31:31;;;;;;;;;;;;;;;-145.66;100.00;59599.19;10382101;28;19921;-59
2022/05/28 00:36:34;;;;;;;;;;;;;;;-145.66;100.00;59599.19;10381475;28;19921;-59
2022/05/28 00:41:36;;;;;;;;;;;;;;;-145.66;100.00;59599.19;10380842;28;20384;-59
2022/05/28 00:46:38;;;;;;;;;;;;;;;-145.66;100.00;59599.19;10380396;28;20388;-59
2022/05/28 00:51:41;;;;;;;;;;;;;;;-145.66;100.00;59599.19;10379312;28;20368;-59
2022/05/28 00:56:43;;;;;;;;;;;;;;;-145.66;100.00;59599.19;10378892;28;19921;-60
2022/05/28 01:01:46;;;;;;;;;;;;;;;-145.66;100.00;59599.19;10380072;28;20261;-59
2022/05/28 01:06:54;;;;;;;;;;;;;;;-145.66;100.00;59599.19;10379877;28;20376;-59
2022/05/28 01:12:07;;;;;;;;;;;;;;;-145.66;100.00;59599.19;10379432;28;19921;-59
2022/05/28 01:17:18;;;;;;;;;;;;;;;-145.66;100.00;59599.19;10395149;28;19929;-59
2022/05/28 01:22:32;;;;;;;;;;;;;;;-145.66;100.00;59599.19;10379997;28;19929;-59
2022/05/28 01:27:38;;;;;;;;;;;;;;;-145.66;100.00;59599.19;10379426;28;19921;-59
2022/05/28 01:32:41;;;;;;;;;;;;;;;-145.66;100.00;59599.19;10379567;28;19968;-59
2022/05/28 01:37:44;;;;;;;;;;;;;;;-145.66;100.00;59599.19;10379095;28;19922;-59
2022/05/28 01:42:48;;;;;;;;;;;;;;;-145.66;100.00;59599.19;10394501;28;19921;-59
2022/05/28 01:47:50;;;;;;;;;;;;;;;-145.66;100.00;59599.19;10377411;28;20284;-59
2022/05/28 01:52:52;;;;;;;;;;;;;;;-145.66;100.00;59599.19;10377500;28;19936;-59
2022/05/28 01:57:54;;;;;;;;;;;;;;;-145.66;100.00;59599.19;10377666;28;19921;-60
2022/05/28 02:02:57;;;;;;;;;;;;;;;-145.66;100.00;59599.19;10378308;28;19933;-59
2022/05/28 02:08:00;;;;;;;;;;;;;;;-145.66;100.00;59599.19;10393121;28;19921;-59
2022/05/28 02:13:05;;;;;;;;;;;;;;;-145.66;100.00;59599.19;10377539;28;19927;-59
2022/05/28 02:18:15;;;;;;;;;;;;;;;-145.66;100.00;59599.19;10378246;28;19932;-59
2022/05/28 02:23:23;;;;;;;;;;;;;;;-145.66;100.00;59599.19;10377407;28;19932;-59
2022/05/28 02:28:27;;;;;;;;;;;;;;;-145.66;100.00;59599.19;10376894;28;20300;-59
2022/05/28 02:33:30;;;;;;;;;;;;;;;-145.66;100.00;59599.19;10375526;28;19928;-59
2022/05/28 02:38:32;;;;;;;;;;;;;;;-145.66;100.00;59599.19;10376662;28;19922;-60
2022/05/28 02:43:36;;;;;;;;;;;;;;;-145.66;100.00;59599.19;10376784;28;19922;-59
2022/05/28 02:48:39;;;;;;;;;;;;;;;-145.66;100.00;59599.19;10375522;28;20376;-59
2022/05/28 02:53:41;;;;;;;;;;;;;;;-145.66;100.00;59599.19;10391510;28;19921;-59
2022/05/28 02:58:43;;;;;;;;;;;;;;;-145.66;100.00;59599.19;10376287;28;19922;-59
2022/05/28 03:03:45;;;;;;;;;;;;;;;-145.66;100.00;59599.19;10376073;28;19921;-59
2022/05/28 03:08:48;;;;;;;;;;;;;;;-145.66;100.00;59599.19;10375816;28;19979;-60
2022/05/28 03:13:50;;;;;;;;;;;;;;;-145.66;100.00;59599.19;10375786;28;19921;-59
2022/05/28 03:18:53;;;;;;;;;;;;;;;-145.66;100.00;59599.19;10375597;28;20005;-59
2022/05/28 03:23:55;;;;;;;;;;;;;;;-145.66;100.00;59599.19;10375599;28;19921;-59
2022/05/28 03:28:58;;;;;;;;;;;;;;;-145.66;100.00;59599.19;10375497;28;19921;-59
2022/05/28 03:34:00;;;;;;;;;;;;;;;-145.66;100.00;59599.19;10375457;28;19922;-59
2022/05/28 03:39:02;;;;;;;;;;;;;;;-145.66;100.00;59599.19;10374519;28;19921;-59
2022/05/28 03:44:05;;;;;;;;;;;;;;;-145.66;100.00;59599.19;10374523;28;20384;-59
2022/05/28 03:49:08;;;;;;;;;;;;;;;-145.66;100.00;59599.19;10374850;28;19927;-59
2022/05/28 03:54:10;;;;;;;;;;;;;;;-145.66;100.00;59599.19;10390098;28;19922;-59
2022/05/28 03:59:13;;;;;;;;;;;;;;;-145.66;100.00;59599.19;10374486;28;19944;-59
2022/05/28 04:04:15;;;;;;;;;;;;;;;-145.66;100.00;59599.19;10381972;28;19930;-60
2022/05/28 04:09:17;;;;;;;;;;;;;;;-145.66;100.00;59599.19;10381976;28;20287;-60
2022/05/28 04:14:19;;;;;;;;;;;;;;;-145.66;100.00;59599.19;10381861;28;19927;-60
2022/05/28 04:19:21;;;;;;;;;;;;;;;-145.66;100.00;59599.19;10380157;28;20363;-59
2022/05/28 04:24:24;;;;;;;;;;;;;;;-145.66;100.00;59599.19;10396344;28;20276;-59
2022/05/28 04:29:26;;;;;;;;;;;;;;;-145.66;100.00;59599.19;10380953;28;19921;-60
2022/05/28 04:34:28;;;;;;;;;;;;;;;-145.66;100.00;59599.19;10380505;28;20303;-59
2022/05/28 04:39:30;;;;;;;;;;;;;;;-145.66;100.00;59599.19;10380407;28;19921;-60
2022/05/28 04:44:33;;;;;;;;;;;;;;;-145.66;100.00;59599.19;10381205;28;19927;-60
2022/05/28 04:49:35;;;;;;;;;;;;;;;-145.66;100.00;59599.19;10381027;28;19921;-59
2022/05/28 04:54:37;;;;;;;;;;;;;;;-145.66;100.00;59599.19;10380401;28;19929;-59
2022/05/28 04:59:39;;;;;;;;;;;;;;;-145.66;100.00;59599.19;10380549;28;19932;-60
2022/05/28 05:04:42;;;;;;;;;;;;;;;-145.66;100.00;59599.19;10395486;28;19951;-60
2022/05/28 05:09:44;;;;;;;;;;;;;;;-145.66;100.00;59599.19;10379767;28;19928;-59
2022/05/28 05:14:46;;;;;;;;;;;;;;;-145.66;100.00;59599.19;10379456;28;19921;-60
2022/05/28 05:19:48;;;;;;;;;;;;;;;-145.66;100.00;59599.19;10379633;28;19925;-59
2022/05/28 05:24:51;;;;;;;;;;;;;;;-145.66;100.00;59599.19;10379380;28;20276;-59
2022/05/28 05:29:57;;;;;;;;;;;;;;;-145.66;100.00;59599.19;10378494;28;19928;-59
2022/05/28 05:34:59;;;;;;;;;;;;;;;-145.66;100.00;59599.19;10377752;28;19929;-59
2022/05/28 05:40:02;;;;;;;;;;;;;;;-145.66;100.00;59599.19;10378596;28;20315;-60
2022/05/28 05:45:04;;;;;;;;;;;;;;;-145.66;100.00;59599.19;10377583;28;20392;-60
2022/05/28 05:50:07;;;;;;;;;;;;;;;-145.66;100.00;59599.19;10377729;28;19921;-59
2022/05/28 05:55:09;;;;;;;;;;;;;;;-145.66;100.00;59599.19;10378326;28;19921;-60
2022/05/28 06:00:11;;;;;;;;;;;;;;;-145.66;100.00;59599.19;10378101;28;19921;-59
2022/05/28 06:05:13;;;;;;;;;;;;;;;-145.66;100.00;59599.19;10378189;28;19921;-59
2022/05/28 06:10:16;;;;;;;;;;;;;;;-145.66;100.00;59599.19;10377898;28;19996;-59
2022/05/28 06:15:18;;;;;;;;;;;;;;;-145.66;100.00;59599.19;10376842;28;19925;-59
2022/05/28 06:20:20;;;;;;;;;;;;;;;-145.66;100.00;59599.19;10377608;28;19921;-60
2022/05/28 06:25:23;;;;;;;;;;;;;;;-145.66;100.00;59599.19;10376391;28;19922;-60
2022/05/28 06:30:25;;;;;;;;;;;;;;;-145.66;100.00;59599.19;10376949;28;19921;-59
2022/05/28 06:35:29;;;;;;;;;;;;;;;-145.66;100.00;59599.19;10376903;28;19925;-59
2022/05/28 06:40:31;;;;;;;;;;;;;;;-145.66;100.00;59599.19;10376927;28;19928;-59
2022/05/28 06:45:33;;;;;;;;;;;;;;;-145.66;100.00;59599.19;10391078;28;20288;-60
2022/05/28 06:55:57;;;;;;;;;;;;;;;-145.66;100.00;59599.19;10375346;28;19925;-60
2022/05/28 07:00:59;;;;;;;;;;;;;;;-145.66;100.00;59599.19;10375951;28;19921;-60
2022/05/28 07:06:02;;;;;;;;;;;;;;;-145.66;100.00;59599.19;10390720;28;19922;-60
2022/05/28 07:11:07;;;;;;;;;;;;;;;-145.66;100.00;59599.19;10374913;28;19928;-60
2022/05/28 07:16:11;;;;;;;;;;;;;;;-145.66;100.00;59599.19;10375453;28;19928;-60
2022/05/28 07:21:14;;;;;;;;;;;;;;;-145.66;100.00;59599.19;10375628;28;19925;-59
2022/05/28 07:26:17;;;;;;;;;;;;;;;-145.66;100.00;59599.19;10374485;28;19921;-59
2022/05/28 07:31:23;;;;;;;;;;;;;;;-145.66;100.00;59599.19;10374817;28;19975;-60
2022/05/28 07:36:25;;;;;;;;;;;;;;;-145.66;100.00;59599.19;10375022;28;19944;-60
2022/05/28 07:41:27;;;;;;;;;;;;;;;-145.66;100.00;59599.19;10374834;28;20000;-60
2022/05/28 07:46:31;;;;;;;;;;;;;;;-145.66;100.00;59599.19;10374924;28;19929;-60
2022/05/28 07:51:35;;;;;;;;;;;;;;;-145.66;100.00;59599.19;10374664;28;20004;-60
2022/05/28 07:56:37;;;;;;;;;;;;;;;-145.66;100.00;59599.19;10374212;28;19943;-59
2022/05/28 08:01:40;;;;;;;;;;;;;;;-145.66;100.00;59599.19;10374169;28;20292;-60
2022/05/28 08:06:42;;;;;;;;;;;;;;;-145.66;100.00;59599.19;10374444;28;19922;-60
2022/05/28 08:11:45;;;;;;;;;;;;;;;-145.66;100.00;59599.19;10374279;28;19921;-60
2022/05/28 08:16:47;;;;;;;;;;;;;;;-145.66;100.00;59599.19;10374374;28;20464;-60
2022/05/28 08:27:10;;;;;;;;;;;;;;;-145.66;100.00;59599.19;10373582;28;19988;-60
2022/05/28 08:32:16;;;;;;;;;;;;;;;-145.66;100.00;59599.19;10373647;28;19922;-59
2022/05/28 08:37:18;;;;;;;;;;;;;;;-145.66;100.00;59599.19;10373963;28;19926;-59
2022/05/28 08:42:22;;;;;;;;;;;;;;;-145.66;100.00;59599.19;10374280;28;19921;-59
2022/05/28 08:47:28;;;;;;;;;;;;;;;-145.66;100.00;59599.19;10377848;28;19922;-60
2022/05/28 08:52:46;;;;;;;;;;;;;;;-145.66;100.00;59599.19;10379389;28;19922;-60
2022/05/28 08:58:02;;;;;;;;;;;;;;;-145.66;100.00;59599.19;10379741;28;19932;-60
2022/05/28 09:03:14;;;;;;;;;;;;;;;-145.66;100.00;59599.19;10379346;28;19921;-60
2022/05/28 09:08:20;;;;;;;;;;;;;;;-145.66;100.00;59599.19;10378629;28;19928;-59
2022/05/28 09:13:30;;;;;;;;;;;;;;;-145.66;100.00;59599.19;10394869;28;19928;-60
2022/05/28 09:18:36;;;;;;;;;;;;;;;-145.66;100.00;59599.19;10395357;28;19922;-60
2022/05/28 09:23:41;;;;;;;;;;;;;;;-145.66;100.00;59599.19;10379064;28;19950;-60
2022/05/28 09:28:59;;;;;;;;;;;;;;;-145.66;100.00;59599.19;10394771;28;19925;-60
2022/05/28 09:34:03;;;;;;;;;;;;;;;-145.66;100.00;59599.19;10378937;28;19925;-60
2022/05/28 09:39:15;;;;;;;;;;;;;;;-145.66;100.00;59599.19;10392636;28;20011;-59
2022/05/28 09:44:26;;;;;;;;;;;;;;;-145.66;100.00;59599.19;10377740;28;19925;-59
2022/05/28 09:49:28;;;;;;;;;;;;;;;-145.66;100.00;59599.19;10378298;28;20396;-60
2022/05/28 09:54:33;;;;;;;;;;;;;;;-145.66;100.00;59599.19;10378737;28;19928;-60
2022/05/28 09:59:37;;;;;;;;;;;;;;;-145.66;100.00;59599.19;10376600;28;20357;-60
2022/05/28 10:04:49;;;;;;;;;;;;;;;-145.66;100.00;59599.19;10393504;28;19947;-60
2022/05/28 10:09:53;;;;;;;;;;;;;;;-145.66;100.00;59599.19;10378148;28;19928;-60
2022/05/28 10:15:12;;;;;;;;;;;;;;;-145.66;100.00;59599.19;10377760;28;19925;-60
2022/05/28 10:20:16;;;;;;;;;;;;;;;-145.66;100.00;59599.19;10377574;28;20277;-60
2022/05/28 10:25:28;;;;;;;;;;;;;;;-145.66;100.00;59599.19;10391723;28;19932;-60
2022/05/28 10:30:31;;;;;;;;;;;;;;;-145.66;100.00;59599.19;10390877;28;20289;-60
2022/05/28 10:35:33;;;;;;;;;;;;;;;-145.66;100.00;59599.19;10391821;28;19921;-60
2022/05/28 10:40:44;;;;;;;;;;;;;;;-145.66;100.00;59599.19;10377010;28;19922;-59
2022/05/28 10:45:47;;;;;;;;;;;;;;;-145.66;100.00;59599.19;10388874;28;19922;-59
2022/05/28 10:51:11;;;;;;;;;;;;;;;-145.66;100.00;59599.19;10391362;28;19921;-59
2022/05/28 10:56:17;;;;;;;;;;;;;;;-145.66;100.00;59599.19;10375834;28;19921;-59
2022/05/28 11:01:20;;;;;;;;;;;;;;;-145.66;100.00;59599.19;10390813;28;19922;-59
2022/05/28 11:06:28;;;;;;;;;;;;;;;-145.66;100.00;59599.19;10375956;28;19922;-59
2022/05/28 11:11:34;;;;;;;;;;;;;;;-145.66;100.00;59599.19;10375691;28;19921;-60
2022/05/28 11:16:47;;;;;;;;;;;;;;;-145.66;100.00;59599.19;10376149;28;19921;-59
2022/05/28 11:21:59;;;;;;;;;;;;;;;-145.66;100.00;59599.19;10390717;28;19921;-59
2022/05/28 11:27:07;;;;;;;;;;;;;;;-145.66;100.00;59599.19;10383108;22;19925;-59
2022/05/28 11:32:20;;;;;;;;;;;;;;;-145.66;100.00;59599.19;10375428;28;19934;-59
2022/05/28 11:37:34;;;;;;;;;;;;;;;-145.66;100.00;59599.19;10374217;28;19929;-59
2022/05/28 11:42:43;;;;;;;;;;;;;;;-145.66;100.00;59599.19;10374087;28;19922;-59
2022/05/28 11:48:00;;;;;;;;;;;;;;;-145.66;100.00;59599.19;10374062;28;19921;-59
2022/05/28 11:53:02;;;;;;;;;;;;;;;-145.66;100.00;59599.19;10375053;28;19928;-59
2022/05/28 11:58:07;;;;;;;;;;;;;;;-145.66;100.00;59599.19;10374897;28;19922;-62
2022/05/28 12:03:11;;;;;;;;;;;;;;;-145.66;100.00;59599.19;10373106;28;20398;-62
2022/05/28 12:08:38;;;;;;;;;;;;;;;-145.66;100.00;59599.19;10373070;28;19921;-62
2022/05/28 12:13:40;;;;;;;;;;;;;;;-145.66;100.00;59599.19;10355899;28;20012;-61
2022/05/28 12:18:53;;;;;;;;;;;;;;;-145.66;100.00;59599.19;10373751;28;19921;-62
2022/05/28 12:24:07;;;;;;;;;;;;;;;-145.66;100.00;59599.19;10395729;28;20871;-62
2022/05/28 12:29:10;;;;;;;;;;;;;;;-145.66;100.00;59599.19;10396828;28;19922;-62
2022/05/28 12:34:19;;;;;;;;;;;;;;;-145.66;100.00;59599.19;10380127;28;19922;-62
2022/05/28 12:39:21;;;;;;;;;;;;;;;-145.66;100.00;59599.19;10380571;28;19928;-62
2022/05/28 12:44:23;;;;;;;;;;;;;;;-145.66;100.00;59599.19;10379886;28;19945;-62
2022/05/28 12:49:28;;;;;;;;;;;;;;;-145.66;100.00;59599.19;10381596;28;19927;-62
2022/05/28 12:54:32;;;;;;;;;;;;;;;-145.66;100.00;59599.19;10380513;28;19956;-62
2022/05/28 12:59:47;;;;;;;;;;;;;;;-145.66;100.00;59599.19;10381269;28;19928;-62
2022/05/28 13:05:00;;;;;;;;;;;;;;;-145.66;100.00;59599.19;10379893;28;20277;-62
2022/05/28 13:10:11;;;;;;;;;;;;;;;-145.66;100.00;59599.19;10380522;28;19928;-62
2022/05/28 13:15:22;;;;;;;;;;;;;;;-145.66;100.00;59599.19;10396160;28;19928;-62
2022/05/28 13:20:36;;;;;;;;;;;;;;;-145.66;100.00;59599.19;10378214;28;19928;-62
2022/05/28 13:25:44;;;;;;;;;;;;;;;-145.66;100.00;59599.19;10380087;28;19921;-62
2022/05/28 13:30:58;;;;;;;;;;;;;;;-145.66;100.00;59599.19;10379223;28;20364;-62
2022/05/28 13:36:00;;;;;;;;;;;;;;;-145.66;100.00;59599.19;10379391;28;20080;-61
2022/05/28 13:41:06;;;;;;;;;;;;;;;-145.66;100.00;59599.19;10394328;28;19921;-62
2022/05/28 13:46:11;;;;;;;;;;;;;;;-145.66;100.00;59599.19;10378140;28;19921;-63
2022/05/28 13:51:13;;;;;;;;;;;;;;;-145.66;100.00;59599.19;10377724;28;19925;-63
2022/05/28 13:56:20;;;;;;;;;;;;;;;-145.66;100.00;59599.19;10377505;28;19921;-62
2022/05/28 14:01:22;;;;;;;;;;;;;;;-145.66;100.00;59599.19;10377845;28;19921;-63
2022/05/28 14:06:25;;;;;;;;;;;;;;;-145.66;100.00;59599.19;10377186;28;19928;-62
2022/05/28 14:11:33;;;;;;;;;;;;;;;-145.66;100.00;59599.19;10376982;28;19921;-63
2022/05/28 14:16:44;;;;;;;;;;;;;;;-145.66;100.00;59599.19;10376178;28;19922;-62
2022/05/28 14:21:51;;;;;;;;;;;;;;;-145.66;100.00;59599.19;10376324;28;19921;-63
2022/05/28 14:26:54;;;;;;;;;;;;;;;-145.66;100.00;59599.19;10391686;28;20304;-63
2022/05/28 14:31:56;;;;;;;;;;;;;;;-145.66;100.00;59599.19;10373696;28;19929;-63
2022/05/28 14:36:59;;;;;;;;;;;;;;;-145.66;100.00;59599.19;10369066;28;20356;-62
2022/05/28 14:42:03;;;;;;;;;;;;;;;-145.66;100.00;59599.19;10369393;28;20372;-62
2022/05/28 14:47:20;;;;;;;;;;;;;;;-145.66;100.00;59599.19;10369277;28;19926;-66
2022/05/28 14:52:23;;;;;;;;;;;;;;;-145.66;100.00;59599.19;10369320;28;19925;-64
2022/05/28 14:57:28;;;;;;;;;;;;;;;-145.66;100.00;59599.19;10368122;28;19925;-65
2022/05/28 15:02:34;;;;;;;;;;;;;;;-145.66;100.00;59599.19;10368286;28;19930;-64
2022/05/28 15:07:37;;;;;;;;;;;;;;;-145.66;100.00;59599.19;10368398;28;19940;-65
2022/05/28 15:12:40;;;;;;;;;;;;;;;-145.66;100.00;59599.19;10362991;28;19932;-65
2022/05/28 15:17:44;;;;;;;;;;;;;;;-145.66;100.00;59599.19;10366855;28;19932;-65
2022/05/28 15:22:46;;;;;;;;;;;;;;;-145.66;100.00;59599.19;10368570;28;19925;-65
2022/05/28 15:27:49;;;;;;;;;;;;;;;-145.66;100.00;59599.19;10368711;28;19921;-65
2022/05/28 15:32:52;;;;;;;;;;;;;;;-145.66;100.00;59599.19;10368377;28;19925;-65
2022/05/28 15:37:54;;;;;;;;;;;;;;;-145.66;100.00;59599.19;10368228;28;19921;-65
2022/05/28 15:42:56;;;;;;;;;;;;;;;-145.66;100.00;59599.19;10366985;28;19925;-65
2022/05/28 15:47:59;;;;;;;;;;;;;;;-145.66;100.00;59599.19;10366488;28;19925;-60
2022/05/28 15:53:02;;;;;;;;;;;;;;;-145.66;100.00;59599.19;10367859;28;20349;-60
2022/05/28 15:58:05;;;;;;;;;;;;;;;-145.66;100.00;59599.19;10374788;28;19928;-60
2022/05/28 16:03:07;;;;;;;;;;;;;;;-145.66;100.00;59599.19;10376246;28;19932;-60
2022/05/28 16:08:52;;;;;;;;;;;;;;;-145.66;100.00;59599.19;10371086;28;19921;-60
2022/05/28 16:13:34;;;;;;;;;;;;;;;-145.66;100.00;59599.19;10369127;28;19921;-60
2022/05/28 16:18:37;;;;;;;;;;;;;;;-145.66;100.00;59599.19;10375497;28;19926;-60
2022/05/28 16:23:42;;;;;;;;;;;;;;;-145.66;100.00;59599.19;10375440;28;19921;-60
2022/05/28 16:28:45;;;;;;;;;;;;;;;-145.66;100.00;59599.19;10374566;28;19925;-60
2022/05/28 16:33:47;;;;;;;;;;;;;;;-145.66;100.00;59599.19;10374018;28;19921;-60
2022/05/28 16:38:49;;;;;;;;;;;;;;;-145.66;100.00;59599.19;10374447;28;19925;-61
2022/05/28 16:43:52;;;;;;;;;;;;;;;-145.66;100.00;59599.19;10374795;28;19921;-60
2022/05/28 16:48:55;;;;;;;;;;;;;;;-145.66;100.00;59599.19;10374073;28;19932;-60
2022/05/28 16:53:57;;;;;;;;;;;;;;;-145.66;100.00;59599.19;10373855;28;19925;-60
2022/05/28 16:58:59;;;;;;;;;;;;;;;-145.66;100.00;59599.19;10373205;28;20291;-59
2022/05/28 17:04:01;;;;;;;;;;;;;;;-145.66;100.00;59599.19;10370155;28;19925;-59
2022/05/28 17:09:04;;;;;;;;;;;;;;;-145.66;100.00;59599.19;10372480;28;19932;-59
2022/05/28 17:14:06;;;;;;;;;;;;;;;-145.66;100.00;59599.19;10373545;28;19925;-59
2022/05/28 17:19:09;;;;;;;;;;;;;;;-145.66;100.00;59599.19;10373473;28;19932;-60
2022/05/28 17:24:30;;;;;;;;;;;;;;;-145.66;100.00;59599.19;10370996;28;19925;-60
2022/05/28 17:29:33;;;;;;;;;;;;;;;-145.66;100.00;59599.19;10369831;28;20335;-59
2022/05/28 17:34:36;;;;;;;;;;;;;;;-145.66;100.00;59599.19;10372644;28;19921;-59
2022/05/28 17:39:39;;;;;;;;;;;;;;;-145.66;100.00;59599.19;10371022;28;20280;-59
2022/05/28 17:44:41;;;;;;;;;;;;;;;-145.66;100.00;59599.19;10371655;28;20372;-59
2022/05/28 17:49:44;;;;;;;;;;;;;;;-145.66;100.00;59599.19;10371477;28;20376;-59
2022/05/28 17:54:46;;;;;;;;;;;;;;;-145.66;100.00;59599.19;10371327;28;20315;-59
2022/05/28 17:59:48;;;;;;;;;;;;;;;-145.66;100.00;59599.19;10367681;28;19936;-60
2022/05/28 18:04:50;;;;;;;;;;;;;;;-145.66;100.00;59599.19;10362518;28;19929;-59
2022/05/28 18:09:53;;;;;;;;;;;;;;;-145.66;100.00;59599.19;10371403;28;19929;-59
2022/05/28 18:14:55;;;;;;;;;;;;;;;-145.66;100.00;59599.19;10369903;28;19932;-59
2022/05/28 18:19:57;;;;;;;;;;;;;;;-145.66;100.00;59599.19;10369774;28;19921;-59
2022/05/28 18:25:00;;;;;;;;;;;;;;;-145.66;100.00;59599.19;10370269;28;19929;-59
2022/05/28 18:30:03;;;;;;;;;;;;;;;-145.66;100.00;59599.19;10369881;28;20367;-59
2022/05/28 18:35:07;;;;;;;;;;;;;;;-145.66;100.00;59599.19;10370182;28;19933;-59
2022/05/28 18:40:10;;;;;;;;;;;;;;;-145.66;100.00;59599.19;10370310;28;19925;-59
2022/05/28 18:45:13;;;;;;;;;;;;;;;-145.66;100.00;59599.19;10368806;28;19925;-59
2022/05/28 18:50:15;;;;;;;;;;;;;;;-145.66;100.00;59599.19;10369992;28;19925;-59
2022/05/28 18:55:17;;;;;;;;;;;;;;;-145.66;100.00;59599.19;10366945;28;19936;-59
2022/05/28 19:00:19;;;;;;;;;;;;;;;-145.66;100.00;59599.19;10365432;28;19925;-60
2022/05/28 19:05:21;;;;;;;;;;;;;;;-145.66;100.00;59599.19;10368706;28;19921;-59
2022/05/28 19:10:24;;;;;;;;;;;;;;;-145.66;100.00;59599.19;10367729;28;19932;-60
2022/05/28 19:15:26;;;;;;;;;;;;;;;-145.66;100.00;59599.19;10368566;28;20357;-59
2022/05/28 19:20:28;;;;;;;;;;;;;;;-145.66;100.00;59599.19;10368835;28;19928;-59
2022/05/28 19:30:51;;;;;;;;;;;;;;;-145.66;100.00;59599.19;10374039;28;19921;-60
2022/05/28 19:35:54;;;;;;;;;;;;;;;-145.66;100.00;59599.19;10375379;28;19922;-60
2022/05/28 19:40:57;;;;;;;;;;;;;;;-145.66;100.00;59599.19;10374424;28;19921;-59
2022/05/28 19:45:59;;;;;;;;;;;;;;;-145.66;100.00;59599.19;10389209;28;19921;-59
2022/05/28 19:51:04;;;;;;;;;;;;;;;-145.66;100.00;59599.19;10390478;28;19921;-60
2022/05/28 19:56:06;;;;;;;;;;;;;;;-145.66;100.00;59599.19;10374345;28;19922;-59
2022/05/28 20:01:08;;;;;;;;;;;;;;;-145.66;100.00;59599.19;10374820;28;19921;-60
2022/05/28 20:06:10;;;;;;;;;;;;;;;-145.66;100.00;59599.19;10373331;28;19926;-60
2022/05/28 20:11:13;;;;;;;;;;;;;;;-145.66;100.00;59599.19;10374078;28;19930;-60
2022/05/28 20:16:15;;;;;;;;;;;;;;;-145.66;100.00;59599.19;10372597;28;20000;-60
2022/05/28 20:21:18;;;;;;;;;;;;;;;-145.66;100.00;59599.19;10374471;28;19925;-60
2022/05/28 20:26:20;;;;;;;;;;;;;;;-145.66;100.00;59599.19;10373379;28;19932;-60
2022/05/28 20:31:23;;;;;;;;;;;;;;;-145.66;100.00;59599.19;10374041;28;20304;-60
2022/05/28 20:36:28;;;;;;;;;;;;;;;-145.66;100.00;59599.19;10373676;28;19922;-60
2022/05/28 20:41:30;;;;;;;;;;;;;;;-145.66;100.00;59599.19;10375406;28;19932;-60
2022/05/28 20:46:33;;;;;;;;;;;;;;;-145.66;100.00;59599.19;10381799;28;19921;-60
2022/05/28 20:51:36;;;;;;;;;;;;;;;-145.66;100.00;59599.19;10381408;28;19921;-60
2022/05/28 20:56:39;;;;;;;;;;;;;;;-145.66;100.00;59599.19;10380568;28;20328;-60
2022/05/28 21:01:43;;;;;;;;;;;;;;;-145.66;100.00;59599.19;10380557;28;19928;-60
2022/05/28 21:06:46;;;;;;;;;;;;;;;-145.66;100.00;59599.19;10393932;28;19921;-60
2022/05/28 21:11:48;;;;;;;;;;;;;;;-145.66;100.00;59599.19;10379460;28;20364;-60
2022/05/28 21:16:51;;;;;;;;;;;;;;;-145.66;100.00;59599.19;10380281;28;19925;-60
2022/05/28 21:21:53;;;;;;;;;;;;;;;-145.66;100.00;59599.19;10380153;28;19922;-60
2022/05/28 21:32:17;;;;;;;;;;;;;;;-145.66;100.00;59599.19;10379783;28;19929;-60
2022/05/28 21:37:20;;;;;;;;;;;;;;;-145.66;100.00;59599.19;10378792;28;19921;-60
2022/05/28 21:42:22;;;;;;;;;;;;;;;-145.66;100.00;59599.19;10379116;28;19922;-60
2022/05/28 21:47:25;;;;;;;;;;;;;;;-145.66;100.00;59599.19;10379188;28;19921;-60
2022/05/28 21:52:27;;;;;;;;;;;;;;;-145.66;100.00;59599.19;10376933;28;20288;-60
2022/05/28 21:57:29;;;;;;;;;;;;;;;-145.66;100.00;59599.19;10376841;28;20285;-60
2022/05/28 22:02:31;;;;;;;;;;;;;;;-145.66;100.00;59599.19;10393315;28;20027;-60
2022/05/28 22:07:34;;;;;;;;;;;;;;;-145.66;100.00;59599.19;10393045;28;19921;-59
2022/05/28 22:12:36;;;;;;;;;;;;;;;-145.66;100.00;59599.19;10377655;28;19921;-60
2022/05/28 22:17:38;;;;;;;;;;;;;;;-145.66;100.00;59599.19;10377241;28;20376;-60
2022/05/28 22:22:41;;;;;;;;;;;;;;;-145.66;100.00;59599.19;10377793;28;19932;-60
2022/05/28 22:27:43;;;;;;;;;;;;;;;-145.66;100.00;59599.19;10376781;28;19921;-60
2022/05/28 22:32:45;;;;;;;;;;;;;;;-145.66;100.00;59599.19;10376869;28;20368;-60
2022/05/28 22:37:47;;;;;;;;;;;;;;;-145.66;100.00;59599.19;10376414;28;20389;-60
2022/05/28 22:42:49;;;;;;;;;;;;;;;-145.66;100.00;59599.19;10377634;28;19921;-60
2022/05/28 22:47:53;;;;;;;;;;;;;;;-145.66;100.00;59599.19;10376058;28;19921;-60
2022/05/28 22:52:55;;;;;;;;;;;;;;;-145.66;100.00;59599.19;10376773;28;19928;-60
2022/05/28 22:57:57;;;;;;;;;;;;;;;-145.66;100.00;59599.19;10375871;28;19929;-60
2022/05/28 23:03:00;;;;;;;;;;;;;;;-145.66;100.00;59599.19;10375616;28;19931;-60
2022/05/28 23:08:10;;;;;;;;;;;;;;;-145.66;100.00;59599.19;10373878;28;19949;-60
2022/05/28 23:13:12;;;;;;;;;;;;;;;-145.66;100.00;59599.19;10375257;28;20296;-60
2022/05/28 23:18:15;;;;;;;;;;;;;;;-145.66;100.00;59599.19;10375049;28;20383;-60
2022/05/28 23:28:38;;;;;;;;;;;;;;;-145.66;100.00;59599.19;10374193;28;19922;-60
2022/05/28 23:33:44;;;;;;;;;;;;;;;-145.66;100.00;59599.19;10375098;28;19928;-60
2022/05/28 23:38:46;;;;;;;;;;;;;;;-145.66;100.00;59599.19;10390213;28;19921;-60
2022/05/28 23:43:49;;;;;;;;;;;;;;;-145.66;100.00;59599.19;10382572;22;19921;-59
2022/05/28 23:48:51;;;;;;;;;;;;;;;-145.66;100.00;59599.19;10356888;28;19928;-59
2022/05/28 23:53:53;;;;;;;;;;;;;;;-145.66;100.00;59599.19;10373925;28;19921;-59
2022/05/28 23:58:55;;;;;;;;;;;;;;;-145.66;100.00;59599.19;10374285;28;19944;-58
